Thomas, West Virginia
Current Conditions -  °F | °C
As of 1:15 PM on Saturday 22 Nov 2014 (Local Time) from KW99 Reporting Station
Scattered Clouds Scattered Clouds  
Wind Chill: 52°   Ceiling: Unl
Heat Index: 52°   Visibility: 10mi
Dew Point: 16°   Wind: 0mph
Humidity: 24%   Direction: NA
Pressure: 30.27"   Gusts: NA
Location:  39.15°N, 79.5°W
Report Text: KW99 221815Z AUTO 00000KT 10SM SCT048 11/M09 A3027 RMK AO2 T01091090
Loading
Personal Weather Stations






























Interactive Weather Map New forecast layout! Learn more

10-Day Weather Forecast

Advertisements
Track Severe Weather on mobile